createdAt,value
2022-08-10T00:03:54.953Z,99.90
2022-08-10T00:07:59.648Z,99.90
2022-08-10T00:12:05.616Z,99.90
2022-08-10T00:16:08.941Z,99.90
2022-08-10T00:20:14.195Z,99.90
2022-08-10T00:24:18.787Z,99.90
2022-08-10T00:28:22.103Z,99.90
2022-08-10T00:32:25.417Z,99.90
2022-08-10T00:36:28.891Z,99.90
2022-08-10T00:40:37.809Z,99.90
2022-08-10T00:44:43.053Z,99.90
2022-08-10T00:48:46.348Z,99.90
2022-08-10T00:53:04.083Z,99.90
2022-08-10T00:57:15.823Z,99.90
2022-08-10T01:02:08.280Z,99.90
2022-08-10T01:05:52.963Z,99.90
2022-08-10T01:10:09.214Z,99.90
2022-08-10T01:14:23.824Z,99.90
2022-08-10T01:18:39.893Z,99.90
2022-08-10T01:23:16.676Z,99.90
2022-08-10T01:27:33.755Z,99.90
2022-08-10T01:31:42.959Z,99.90
2022-08-10T01:35:53.918Z,99.90
2022-08-10T01:40:01.513Z,99.90
2022-08-10T01:44:10.331Z,99.90
2022-08-10T01:48:31.229Z,99.90
2022-08-10T01:52:37.960Z,99.90
2022-08-10T01:56:44.026Z,99.90
2022-08-10T02:00:51.441Z,99.90
2022-08-10T02:04:57.200Z,99.90
2022-08-10T02:09:06.701Z,99.90
2022-08-10T02:13:11.558Z,99.90
2022-08-10T02:17:58.263Z,99.90
2022-08-10T02:22:37.616Z,99.90
2022-08-10T02:26:10.678Z,99.90
2022-08-10T02:30:14.880Z,99.90
2022-08-10T02:34:19.194Z,99.90
2022-08-10T02:38:58.526Z,99.90
2022-08-10T02:45:27.431Z,99.90
2022-08-10T02:47:50.826Z,99.90
2022-08-10T02:52:07.370Z,99.90
2022-08-10T02:56:17.861Z,99.90
2022-08-10T03:00:21.718Z,99.90
2022-08-10T03:04:55.707Z,99.90
2022-08-10T03:08:52.044Z,99.90
2022-08-10T03:13:01.333Z,99.90
2022-08-10T03:17:06.277Z,99.90
2022-08-10T03:21:12.019Z,99.90
2022-08-10T03:25:16.331Z,99.90
2022-08-10T03:29:23.011Z,99.90
2022-08-10T03:33:28.453Z,99.90
2022-08-10T03:37:31.966Z,99.90
2022-08-10T03:41:37.895Z,99.90
2022-08-10T03:45:55.390Z,99.90
2022-08-10T03:50:25.919Z,99.90
2022-08-10T03:54:25.608Z,99.90
2022-08-10T03:58:29.309Z,99.90
2022-08-10T04:02:44.991Z,99.90
2022-08-10T04:06:55.225Z,99.90
2022-08-10T04:10:58.870Z,99.90
2022-08-10T04:15:03.215Z,99.90
2022-08-10T04:19:09.584Z,99.90
2022-08-10T04:23:19.195Z,99.90
2022-08-10T04:27:22.630Z,99.90
2022-08-10T04:31:29.252Z,99.90
2022-08-10T04:35:35.212Z,99.90
2022-08-10T04:39:39.147Z,99.90
2022-08-10T04:43:42.571Z,99.90
2022-08-10T04:47:57.917Z,99.90
2022-08-10T04:52:06.531Z,99.90
2022-08-10T04:56:09.794Z,99.90
2022-08-10T05:00:30.354Z,99.90
2022-08-10T05:58:37.877Z,99.90
2022-08-10T06:02:44.768Z,99.90
2022-08-10T06:06:52.896Z,99.90
2022-08-10T06:12:27.804Z,99.90
2022-08-10T06:15:50.894Z,99.90
2022-08-10T06:19:47.135Z,99.90
2022-08-10T06:23:58.780Z,99.90
2022-08-10T06:28:03.404Z,99.90
2022-08-10T06:32:10.188Z,99.90
2022-08-10T06:36:15.286Z,99.90
2022-08-10T06:40:19.146Z,99.90
2022-08-10T06:44:30.045Z,99.90
2022-08-10T06:48:40.606Z,99.90
2022-08-10T06:52:45.240Z,99.90
2022-08-10T06:57:08.142Z,99.90
2022-08-10T07:01:17.164Z,98.80
2022-08-10T07:05:25.878Z,97.20
2022-08-10T07:09:32.018Z,96.30
2022-08-10T07:14:14.639Z,94.30
2022-08-10T07:18:04.505Z,94.10
2022-08-10T07:22:10.442Z,93.60
2022-08-10T07:26:35.169Z,93.90
2022-08-10T07:30:41.092Z,93.40
2022-08-10T07:34:46.320Z,93.10
2022-08-10T07:38:52.897Z,92.20
2022-08-10T07:43:01.038Z,92.00
2022-08-10T07:47:05.647Z,91.80
2022-08-10T07:51:10.484Z,91.00
2022-08-10T07:55:19.727Z,90.60
2022-08-10T07:59:46.047Z,90.10
2022-08-10T08:04:05.347Z,90.50
2022-08-10T08:08:16.257Z,89.40
2022-08-10T08:12:21.410Z,88.90
2022-08-10T08:16:28.547Z,87.80
2022-08-10T08:20:33.425Z,87.20
2022-08-10T08:24:39.139Z,84.20
2022-08-10T08:28:46.080Z,82.60
2022-08-10T08:32:52.103Z,84.30
2022-08-10T08:36:59.579Z,84.80
2022-08-10T08:41:17.860Z,83.00
2022-08-10T08:46:00.632Z,84.60
2022-08-10T08:50:16.540Z,81.50
2022-08-10T08:54:32.967Z,79.20
2022-08-10T08:58:49.594Z,79.90
2022-08-10T09:03:27.583Z,76.70
2022-08-10T09:08:01.875Z,72.90
2022-08-10T09:12:21.696Z,68.10
2022-08-10T09:16:29.210Z,67.80
2022-08-10T09:20:41.123Z,70.80
2022-08-10T09:24:47.426Z,73.20
2022-08-10T09:29:11.494Z,76.10
2022-08-10T09:36:21.166Z,71.10
2022-08-10T09:38:02.356Z,66.60
2022-08-10T09:42:14.763Z,63.70
2022-08-10T09:46:31.095Z,62.00
2022-08-10T09:55:18.902Z,67.90
2022-08-10T10:00:01.145Z,60.40
2022-08-10T10:04:06.204Z,59.30
2022-08-10T10:08:16.145Z,55.80
2022-08-10T10:12:32.246Z,56.20
2022-08-10T10:16:58.418Z,54.10
2022-08-10T10:21:10.303Z,56.50
2022-08-10T10:25:50.422Z,57.00
2022-08-10T10:30:04.418Z,54.20
2022-08-10T10:34:16.990Z,53.90
2022-08-10T10:38:24.472Z,52.00
2022-08-10T10:42:45.383Z,51.00
2022-08-10T10:47:03.182Z,53.30
2022-08-10T10:51:14.337Z,51.40
2022-08-10T10:55:23.514Z,51.60
2022-08-10T10:59:56.980Z,49.80
2022-08-10T11:04:17.166Z,53.10
2022-08-10T11:08:29.154Z,55.40
2022-08-10T11:12:45.715Z,50.60
2022-08-10T11:17:02.592Z,49.10
2022-08-10T11:21:15.278Z,51.30
2022-08-10T11:25:29.471Z,54.50
2022-08-10T11:29:41.455Z,58.40
2022-08-10T11:34:47.665Z,56.10
2022-08-10T11:39:13.059Z,51.00
2022-08-10T11:43:22.097Z,49.30
2022-08-10T11:47:37.383Z,48.80
2022-08-10T11:51:47.217Z,52.10
2022-08-10T11:55:56.481Z,49.30
2022-08-10T12:00:00.423Z,48.70
2022-08-10T12:04:11.995Z,49.50
2022-08-10T12:10:03.806Z,45.10
2022-08-10T12:12:48.601Z,44.80
2022-08-10T12:16:56.828Z,45.60
2022-08-10T12:21:04.658Z,45.00
2022-08-10T12:25:18.176Z,45.00
2022-08-10T12:29:47.326Z,45.00
2022-08-10T12:34:02.878Z,41.20
2022-08-10T12:38:15.945Z,42.20
2022-08-10T12:42:36.815Z,42.50
2022-08-10T12:46:53.554Z,40.80
2022-08-10T12:51:01.557Z,40.60
2022-08-10T12:55:08.529Z,43.80
2022-08-10T12:59:14.058Z,45.10
2022-08-10T13:04:23.725Z,43.60
2022-08-10T13:08:25.769Z,42.40
2022-08-10T13:12:38.579Z,39.90
2022-08-10T13:16:39.676Z,40.80
2022-08-10T13:20:45.023Z,45.00
2022-08-10T13:24:55.933Z,48.50
2022-08-10T13:29:02.176Z,51.70
2022-08-10T13:34:40.352Z,52.90
2022-08-10T13:37:48.068Z,49.10
2022-08-10T13:41:54.330Z,48.40
2022-08-10T13:45:59.363Z,50.80
2022-08-10T13:50:06.290Z,52.20
2022-08-10T13:54:13.018Z,52.40
2022-08-10T13:58:18.469Z,54.70
2022-08-10T14:02:27.992Z,53.00
2022-08-10T14:06:33.334Z,46.90
2022-08-10T14:11:09.291Z,41.20
2022-08-10T14:15:06.638Z,39.80
2022-08-10T14:19:20.856Z,44.10
2022-08-10T14:23:25.574Z,47.70
2022-08-10T14:28:02.631Z,50.10
2022-08-10T14:32:02.296Z,52.30
2022-08-10T14:36:20.313Z,50.60
2022-08-10T14:40:36.109Z,50.30
2022-08-10T14:44:48.725Z,53.40
2022-08-10T14:48:54.228Z,57.00
2022-08-10T14:52:58.950Z,56.70
2022-08-10T14:57:11.073Z,56.50
2022-08-10T15:01:20.814Z,57.20
2022-08-10T15:05:39.364Z,56.40
2022-08-10T15:10:01.652Z,59.40
2022-08-10T15:14:41.691Z,55.10
2022-08-10T15:18:36.855Z,57.70
2022-08-10T15:22:40.745Z,54.00
2022-08-10T15:26:51.127Z,52.50
2022-08-10T15:31:02.008Z,52.00
2022-08-10T15:35:26.253Z,52.30
2022-08-10T15:40:21.388Z,55.40
2022-08-10T15:43:56.417Z,54.50
2022-08-10T15:48:04.023Z,56.40
2022-08-10T15:52:39.206Z,56.20
2022-08-10T15:56:44.595Z,56.00
2022-08-10T16:00:55.771Z,56.00
2022-08-10T16:05:08.495Z,57.50
2022-08-10T16:10:10.737Z,60.30
2022-08-10T16:13:59.280Z,59.60
2022-08-10T16:18:08.634Z,64.20
2022-08-10T16:22:34.429Z,65.50
2022-08-10T16:26:40.179Z,66.80
2022-08-10T16:30:46.446Z,67.10
2022-08-10T16:34:53.060Z,70.40
2022-08-10T16:38:59.014Z,70.50
2022-08-10T16:43:08.578Z,72.10
2022-08-10T16:47:13.543Z,74.70
2022-08-10T16:51:21.708Z,76.90
2022-08-10T16:55:48.836Z,76.20
2022-08-10T16:59:54.661Z,77.30
2022-08-10T17:04:06.406Z,79.50
2022-08-10T17:08:16.161Z,79.20
2022-08-10T17:12:25.375Z,81.20
2022-08-10T17:16:37.289Z,81.30
2022-08-10T17:20:42.318Z,81.20
2022-08-10T17:24:51.428Z,82.90
2022-08-10T17:29:01.199Z,84.10
2022-08-10T17:33:11.804Z,87.60
2022-08-10T17:37:20.119Z,88.90
2022-08-10T17:41:28.571Z,87.10
2022-08-10T17:45:48.119Z,87.60
2022-08-10T17:50:00.112Z,88.20
2022-08-10T17:54:20.810Z,86.70
2022-08-10T17:58:35.231Z,86.90
2022-08-10T18:02:44.592Z,88.00
2022-08-10T18:06:54.831Z,87.90
2022-08-10T18:11:03.213Z,87.70
2022-08-10T18:15:17.621Z,87.80
2022-08-10T18:19:24.152Z,88.80
2022-08-10T18:23:34.070Z,89.40
2022-08-10T18:28:01.717Z,89.30
2022-08-10T18:32:11.420Z,89.50
2022-08-10T18:36:31.318Z,90.20
2022-08-10T18:40:41.542Z,90.50
2022-08-10T18:45:02.897Z,90.30
2022-08-10T18:49:30.624Z,90.90
2022-08-10T18:53:41.320Z,90.50
2022-08-10T18:58:09.282Z,90.80
2022-08-10T19:02:28.656Z,90.80
2022-08-10T19:07:04.435Z,90.80
2022-08-10T19:11:18.997Z,90.70
2022-08-10T19:15:34.037Z,90.80
2022-08-10T19:19:47.526Z,90.70
2022-08-10T19:24:04.757Z,91.20
2022-08-10T19:28:13.864Z,91.00
2022-08-10T19:32:29.249Z,91.50
2022-08-10T19:36:44.509Z,91.80
2022-08-10T19:40:59.451Z,92.00
2022-08-10T19:46:00.581Z,92.60
2022-08-10T19:49:51.994Z,92.90
2022-08-10T19:54:04.813Z,93.80
2022-08-10T19:58:16.968Z,94.10
2022-08-10T20:02:26.161Z,94.20
2022-08-10T20:06:43.732Z,95.00
2022-08-10T20:10:56.405Z,95.50
2022-08-10T20:15:07.294Z,95.80
2022-08-10T20:19:13.778Z,95.60
2022-08-10T20:23:21.125Z,95.40
2022-08-10T20:27:56.847Z,95.60
2022-08-10T20:31:56.848Z,95.10
2022-08-10T20:36:06.802Z,95.10
2022-08-10T20:40:18.605Z,95.00
2022-08-10T20:44:34.646Z,95.50
2022-08-10T20:48:45.684Z,95.30
2022-08-10T20:52:51.634Z,95.30
2022-08-10T20:58:04.053Z,95.00
2022-08-10T21:02:07.175Z,95.00
2022-08-10T21:06:46.092Z,95.60
2022-08-10T21:11:03.671Z,95.60
2022-08-10T21:15:22.093Z,95.60
2022-08-10T21:20:06.013Z,96.20
2022-08-10T21:24:19.922Z,96.30
2022-08-10T21:28:49.905Z,96.80
2022-08-10T21:32:59.309Z,97.00
2022-08-10T21:37:09.000Z,97.40
2022-08-10T21:41:58.476Z,97.70
2022-08-10T21:46:28.496Z,98.10
2022-08-10T21:50:57.506Z,98.80
2022-08-10T21:55:57.011Z,98.60
2022-08-10T22:04:54.338Z,99.40
2022-08-10T22:09:21.676Z,99.50
2022-08-10T22:13:42.764Z,99.70
2022-08-10T22:18:07.596Z,99.90
2022-08-10T22:22:34.328Z,99.90
2022-08-10T22:27:46.876Z,99.90
2022-08-10T22:32:15.759Z,99.90
2022-08-10T22:37:06.105Z,99.90
2022-08-10T22:41:32.558Z,99.90
2022-08-10T22:45:55.169Z,99.90
2022-08-10T22:50:03.380Z,99.90
2022-08-10T22:54:34.232Z,99.90
2022-08-10T22:58:42.016Z,99.90
2022-08-10T23:02:53.271Z,99.90
2022-08-10T23:06:59.266Z,99.90
2022-08-10T23:11:06.030Z,99.90
2022-08-10T23:15:37.226Z,99.90
2022-08-10T23:19:45.968Z,99.90
2022-08-10T23:23:51.855Z,99.90
2022-08-10T23:27:58.673Z,99.90
2022-08-10T23:32:07.869Z,99.90
2022-08-10T23:36:34.194Z,99.90
2022-08-10T23:40:39.410Z,99.90
2022-08-10T23:44:46.209Z,99.90
2022-08-10T23:48:54.437Z,99.90
2022-08-10T23:53:03.508Z,99.90
2022-08-10T23:57:22.528Z,99.90
